sensor_id;sensor_type;location;lat;lon;timestamp;temperature;humidity
6355;DHT22;3210;48.708;9.030;2024-02-21T04:21:10;4.70;1.00
6355;DHT22;3210;48.708;9.030;2024-02-21T04:23:41;4.50;1.00
6355;DHT22;3210;48.708;9.030;2024-02-21T07:50:27;5.50;99.90
6355;DHT22;3210;48.708;9.030;2024-02-21T08:22:17;6.50;48.80
6355;DHT22;3210;48.708;9.030;2024-02-21T08:27:30;6.60;40.40
6355;DHT22;3210;48.708;9.030;2024-02-21T08:39:25;7.00;1.00
6355;DHT22;3210;48.708;9.030;2024-02-21T08:41:56;7.20;1.00
6355;DHT22;3210;48.708;9.030;2024-02-21T09:26:00;8.00;1.00
6355;DHT22;3210;48.708;9.030;2024-02-21T09:36:28;8.30;1.00
6355;DHT22;3210;48.708;9.030;2024-02-21T09:38:56;8.40;1.00
6355;DHT22;3210;48.708;9.030;2024-02-21T09:52:04;8.50;1.00
6355;DHT22;3210;48.708;9.030;2024-02-21T09:54:47;8.60;1.00
6355;DHT22;3210;48.708;9.030;2024-02-21T09:57:18;8.70;1.00
6355;DHT22;3210;48.708;9.030;2024-02-21T09:59:56;8.90;1.00
6355;DHT22;3210;48.708;9.030;2024-02-21T10:02:25;9.10;1.00
6355;DHT22;3210;48.708;9.030;2024-02-21T10:04:53;9.10;1.00
6355;DHT22;3210;48.708;9.030;2024-02-21T10:07:22;9.40;1.00
6355;DHT22;3210;48.708;9.030;2024-02-21T10:10:01;9.50;1.00
6355;DHT22;3210;48.708;9.030;2024-02-21T10:12:33;9.80;1.00
6355;DHT22;3210;48.708;9.030;2024-02-21T10:15:02;9.70;1.00
6355;DHT22;3210;48.708;9.030;2024-02-21T10:17:35;10.00;1.00
6355;DHT22;3210;48.708;9.030;2024-02-21T10:20:09;10.00;1.00
6355;DHT22;3210;48.708;9.030;2024-02-21T10:22:42;9.90;1.00
6355;DHT22;3210;48.708;9.030;2024-02-21T10:25:12;10.00;1.00
6355;DHT22;3210;48.708;9.030;2024-02-21T10:27:40;10.10;1.00
6355;DHT22;3210;48.708;9.030;2024-02-21T10:30:12;10.10;1.00
6355;DHT22;3210;48.708;9.030;2024-02-21T10:32:49;10.10;1.00
6355;DHT22;3210;48.708;9.030;2024-02-21T10:35:26;10.20;1.00
6355;DHT22;3210;48.708;9.030;2024-02-21T10:38:10;10.10;1.00
6355;DHT22;3210;48.708;9.030;2024-02-21T10:40:51;10.10;1.00
6355;DHT22;3210;48.708;9.030;2024-02-21T10:43:29;10.00;1.00
6355;DHT22;3210;48.708;9.030;2024-02-21T10:46:20;10.00;1.00
6355;DHT22;3210;48.708;9.030;2024-02-21T10:49:01;10.00;1.00
6355;DHT22;3210;48.708;9.030;2024-02-21T10:51:33;10.00;1.00
6355;DHT22;3210;48.708;9.030;2024-02-21T10:54:13;10.10;1.00
6355;DHT22;3210;48.708;9.030;2024-02-21T10:56:46;10.20;1.00
6355;DHT22;3210;48.708;9.030;2024-02-21T10:59:16;10.20;1.00
6355;DHT22;3210;48.708;9.030;2024-02-21T11:01:51;10.30;1.00
6355;DHT22;3210;48.708;9.030;2024-02-21T11:04:41;10.30;1.00
6355;DHT22;3210;48.708;9.030;2024-02-21T11:07:22;10.40;1.00
6355;DHT22;3210;48.708;9.030;2024-02-21T11:09:54;10.50;1.00
6355;DHT22;3210;48.708;9.030;2024-02-21T11:12:22;10.40;1.00
6355;DHT22;3210;48.708;9.030;2024-02-21T11:14:49;10.60;1.00
6355;DHT22;3210;48.708;9.030;2024-02-21T11:17:18;10.80;1.00
6355;DHT22;3210;48.708;9.030;2024-02-21T11:19:58;10.70;1.00
6355;DHT22;3210;48.708;9.030;2024-02-21T11:22:26;10.70;1.00
6355;DHT22;3210;48.708;9.030;2024-02-21T11:25:38;10.50;1.00
6355;DHT22;3210;48.708;9.030;2024-02-21T11:28:03;10.60;1.00
6355;DHT22;3210;48.708;9.030;2024-02-21T11:30:31;10.50;1.00
6355;DHT22;3210;48.708;9.030;2024-02-21T11:33:00;10.60;1.00
6355;DHT22;3210;48.708;9.030;2024-02-21T11:35:33;10.60;1.00
6355;DHT22;3210;48.708;9.030;2024-02-21T11:38:14;10.50;1.00
6355;DHT22;3210;48.708;9.030;2024-02-21T11:41:01;10.60;1.00
6355;DHT22;3210;48.708;9.030;2024-02-21T11:43:35;10.80;1.00
6355;DHT22;3210;48.708;9.030;2024-02-21T11:46:03;10.80;1.00
6355;DHT22;3210;48.708;9.030;2024-02-21T11:48:32;10.80;1.00
6355;DHT22;3210;48.708;9.030;2024-02-21T11:50:59;11.00;1.00
6355;DHT22;3210;48.708;9.030;2024-02-21T11:53:27;11.00;1.00
6355;DHT22;3210;48.708;9.030;2024-02-21T11:56:07;11.00;1.00
6355;DHT22;3210;48.708;9.030;2024-02-21T11:58:34;11.00;1.00
6355;DHT22;3210;48.708;9.030;2024-02-21T12:01:02;11.10;1.00
6355;DHT22;3210;48.708;9.030;2024-02-21T12:03:30;11.30;1.00
6355;DHT22;3210;48.708;9.030;2024-02-21T12:05:57;11.40;1.00
6355;DHT22;3210;48.708;9.030;2024-02-21T12:08:25;11.40;1.00
6355;DHT22;3210;48.708;9.030;2024-02-21T12:10:54;11.30;1.00
6355;DHT22;3210;48.708;9.030;2024-02-21T12:13:24;11.40;1.00
6355;DHT22;3210;48.708;9.030;2024-02-21T12:15:51;11.50;1.00
6355;DHT22;3210;48.708;9.030;2024-02-21T12:18:18;11.60;1.00
6355;DHT22;3210;48.708;9.030;2024-02-21T12:20:48;11.70;1.00
6355;DHT22;3210;48.708;9.030;2024-02-21T12:23:15;11.70;1.00
6355;DHT22;3210;48.708;9.030;2024-02-21T12:25:44;11.80;1.00
6355;DHT22;3210;48.708;9.030;2024-02-21T12:28:12;11.80;1.00
6355;DHT22;3210;48.708;9.030;2024-02-21T12:30:41;11.90;1.00
6355;DHT22;3210;48.708;9.030;2024-02-21T12:33:14;11.80;1.00
6355;DHT22;3210;48.708;9.030;2024-02-21T12:35:53;11.80;1.00
6355;DHT22;3210;48.708;9.030;2024-02-21T12:38:34;11.90;1.00
6355;DHT22;3210;48.708;9.030;2024-02-21T12:41:01;11.90;1.00
6355;DHT22;3210;48.708;9.030;2024-02-21T12:43:29;11.90;1.00
6355;DHT22;3210;48.708;9.030;2024-02-21T12:46:01;11.90;1.00
6355;DHT22;3210;48.708;9.030;2024-02-21T12:48:30;11.90;1.00
6355;DHT22;3210;48.708;9.030;2024-02-21T12:50:58;12.00;1.00
6355;DHT22;3210;48.708;9.030;2024-02-21T12:53:25;12.00;1.00
6355;DHT22;3210;48.708;9.030;2024-02-21T12:55:54;12.00;1.00
6355;DHT22;3210;48.708;9.030;2024-02-21T12:58:38;12.10;1.00
6355;DHT22;3210;48.708;9.030;2024-02-21T13:01:09;12.10;1.00
6355;DHT22;3210;48.708;9.030;2024-02-21T13:03:38;12.10;1.00
6355;DHT22;3210;48.708;9.030;2024-02-21T13:06:06;12.10;1.00
6355;DHT22;3210;48.708;9.030;2024-02-21T13:08:37;12.10;1.00
6355;DHT22;3210;48.708;9.030;2024-02-21T13:11:04;12.20;1.00
6355;DHT22;3210;48.708;9.030;2024-02-21T13:13:35;12.20;1.00
6355;DHT22;3210;48.708;9.030;2024-02-21T13:16:18;12.30;1.00
6355;DHT22;3210;48.708;9.030;2024-02-21T13:18:45;12.20;1.00
6355;DHT22;3210;48.708;9.030;2024-02-21T13:21:13;12.20;1.00
6355;DHT22;3210;48.708;9.030;2024-02-21T13:23:42;12.20;1.00
6355;DHT22;3210;48.708;9.030;2024-02-21T13:26:10;12.20;1.00
6355;DHT22;3210;48.708;9.030;2024-02-21T13:28:38;12.10;1.00
6355;DHT22;3210;48.708;9.030;2024-02-21T13:31:05;12.20;1.00
6355;DHT22;3210;48.708;9.030;2024-02-21T13:33:36;12.30;1.00
6355;DHT22;3210;48.708;9.030;2024-02-21T13:36:04;12.30;1.00
6355;DHT22;3210;48.708;9.030;2024-02-21T13:38:31;12.30;1.00
6355;DHT22;3210;48.708;9.030;2024-02-21T13:40:59;12.40;1.00
6355;DHT22;3210;48.708;9.030;2024-02-21T13:43:27;12.30;1.00
6355;DHT22;3210;48.708;9.030;2024-02-21T13:46:02;12.30;1.00
6355;DHT22;3210;48.708;9.030;2024-02-21T13:48:32;12.30;1.00
6355;DHT22;3210;48.708;9.030;2024-02-21T13:51:02;12.30;1.00
6355;DHT22;3210;48.708;9.030;2024-02-21T13:53:34;12.30;1.00
6355;DHT22;3210;48.708;9.030;2024-02-21T13:56:02;12.30;1.00
6355;DHT22;3210;48.708;9.030;2024-02-21T13:58:34;12.30;1.00
6355;DHT22;3210;48.708;9.030;2024-02-21T14:01:24;12.20;1.00
6355;DHT22;3210;48.708;9.030;2024-02-21T14:04:12;12.20;1.00
6355;DHT22;3210;48.708;9.030;2024-02-21T14:10:13;12.20;1.00
6355;DHT22;3210;48.708;9.030;2024-02-21T14:12:55;12.10;1.00
6355;DHT22;3210;48.708;9.030;2024-02-21T14:15:39;12.10;1.00
6355;DHT22;3210;48.708;9.030;2024-02-21T14:18:29;12.00;1.00
6355;DHT22;3210;48.708;9.030;2024-02-21T14:21:36;12.00;1.00
6355;DHT22;3210;48.708;9.030;2024-02-21T14:25:50;12.00;1.00
6355;DHT22;3210;48.708;9.030;2024-02-21T14:29:20;12.00;1.00
6355;DHT22;3210;48.708;9.030;2024-02-21T14:31:39;11.90;1.00
6355;DHT22;3210;48.708;9.030;2024-02-21T14:34:37;11.90;1.00
6355;DHT22;3210;48.708;9.030;2024-02-21T14:37:18;11.90;1.00
6355;DHT22;3210;48.708;9.030;2024-02-21T14:41:06;11.90;1.00
6355;DHT22;3210;48.708;9.030;2024-02-21T14:42:57;11.90;1.00
6355;DHT22;3210;48.708;9.030;2024-02-21T15:28:29;11.30;1.00
6355;DHT22;3210;48.708;9.030;2024-02-21T15:34:58;11.40;1.00
6355;DHT22;3210;48.708;9.030;2024-02-21T17:35:45;9.80;1.00
6355;DHT22;3210;48.708;9.030;2024-02-21T17:41:03;9.90;1.00
6355;DHT22;3210;48.708;9.030;2024-02-21T17:43:41;10.00;1.00
6355;DHT22;3210;48.708;9.030;2024-02-21T17:46:40;10.10;1.00
6355;DHT22;3210;48.708;9.030;2024-02-21T17:49:41;10.00;1.00
6355;DHT22;3210;48.708;9.030;2024-02-21T17:53:23;9.90;1.00
6355;DHT22;3210;48.708;9.030;2024-02-21T17:55:22;9.80;1.00
6355;DHT22;3210;48.708;9.030;2024-02-21T17:58:02;9.70;1.00
6355;DHT22;3210;48.708;9.030;2024-02-21T18:01:08;9.60;1.00
6355;DHT22;3210;48.708;9.030;2024-02-21T18:03:56;9.60;1.00
6355;DHT22;3210;48.708;9.030;2024-02-21T18:06:45;9.70;1.00
6355;DHT22;3210;48.708;9.030;2024-02-21T18:09:32;9.60;1.00
6355;DHT22;3210;48.708;9.030;2024-02-21T18:12:00;9.60;1.00
6355;DHT22;3210;48.708;9.030;2024-02-21T18:14:47;9.70;1.00
6355;DHT22;3210;48.708;9.030;2024-02-21T18:17:27;9.70;1.00
6355;DHT22;3210;48.708;9.030;2024-02-21T18:20:07;9.70;1.00
6355;DHT22;3210;48.708;9.030;2024-02-21T18:22:35;9.90;1.00
6355;DHT22;3210;48.708;9.030;2024-02-21T18:25:27;9.90;1.00
6355;DHT22;3210;48.708;9.030;2024-02-21T18:28:16;9.90;1.00
6355;DHT22;3210;48.708;9.030;2024-02-21T18:31:27;9.80;1.00
6355;DHT22;3210;48.708;9.030;2024-02-21T18:37:31;9.80;1.00
6355;DHT22;3210;48.708;9.030;2024-02-21T18:40:13;9.80;1.00
6355;DHT22;3210;48.708;9.030;2024-02-21T18:45:58;9.90;1.00
6355;DHT22;3210;48.708;9.030;2024-02-21T18:48:30;9.80;1.00
6355;DHT22;3210;48.708;9.030;2024-02-21T18:51:15;10.00;1.00
6355;DHT22;3210;48.708;9.030;2024-02-21T18:53:59;9.90;1.00
6355;DHT22;3210;48.708;9.030;2024-02-21T18:56:50;10.00;1.00
6355;DHT22;3210;48.708;9.030;2024-02-21T18:59:45;10.00;1.00
6355;DHT22;3210;48.708;9.030;2024-02-21T19:02:47;10.00;1.00
6355;DHT22;3210;48.708;9.030;2024-02-21T19:05:15;10.00;1.00
6355;DHT22;3210;48.708;9.030;2024-02-21T19:07:53;10.00;1.00
6355;DHT22;3210;48.708;9.030;2024-02-21T19:10:26;9.90;1.00
6355;DHT22;3210;48.708;9.030;2024-02-21T19:13:09;10.00;1.00
6355;DHT22;3210;48.708;9.030;2024-02-21T19:15:40;10.00;1.00
6355;DHT22;3210;48.708;9.030;2024-02-21T19:18:26;9.90;1.00
6355;DHT22;3210;48.708;9.030;2024-02-21T19:21:03;9.90;1.00
6355;DHT22;3210;48.708;9.030;2024-02-21T19:24:19;9.70;1.00
6355;DHT22;3210;48.708;9.030;2024-02-21T20:00:29;9.70;1.00
6355;DHT22;3210;48.708;9.030;2024-02-21T20:06:11;9.70;1.00
6355;DHT22;3210;48.708;9.030;2024-02-21T20:14:15;9.60;1.00
6355;DHT22;3210;48.708;9.030;2024-02-21T20:17:22;9.50;1.00
6355;DHT22;3210;48.708;9.030;2024-02-21T20:20:51;9.40;1.00
6355;DHT22;3210;48.708;9.030;2024-02-21T20:23:28;9.30;1.00
6355;DHT22;3210;48.708;9.030;2024-02-21T20:30:00;9.20;1.00
6355;DHT22;3210;48.708;9.030;2024-02-21T20:48:42;9.30;1.00
6355;DHT22;3210;48.708;9.030;2024-02-21T20:51:10;9.30;1.00
6355;DHT22;3210;48.708;9.030;2024-02-21T20:53:40;9.30;1.00
6355;DHT22;3210;48.708;9.030;2024-02-21T20:56:13;9.30;1.00
6355;DHT22;3210;48.708;9.030;2024-02-21T20:58:41;9.30;1.00
6355;DHT22;3210;48.708;9.030;2024-02-21T21:01:09;9.40;1.00
6355;DHT22;3210;48.708;9.030;2024-02-21T21:03:36;9.50;1.00
6355;DHT22;3210;48.708;9.030;2024-02-21T21:09:16;9.50;1.00
6355;DHT22;3210;48.708;9.030;2024-02-21T21:11:44;9.60;1.00
6355;DHT22;3210;48.708;9.030;2024-02-21T21:14:13;9.70;1.00
6355;DHT22;3210;48.708;9.030;2024-02-21T21:17:40;9.80;1.00
6355;DHT22;3210;48.708;9.030;2024-02-21T21:20:11;9.90;1.00
6355;DHT22;3210;48.708;9.030;2024-02-21T21:22:41;10.00;1.00
6355;DHT22;3210;48.708;9.030;2024-02-21T21:25:10;10.00;1.00
6355;DHT22;3210;48.708;9.030;2024-02-21T21:27:41;10.10;1.00
6355;DHT22;3210;48.708;9.030;2024-02-21T21:33:13;10.40;1.00
6355;DHT22;3210;48.708;9.030;2024-02-21T21:35:40;10.40;1.00
6355;DHT22;3210;48.708;9.030;2024-02-21T21:38:07;10.40;1.00
6355;DHT22;3210;48.708;9.030;2024-02-21T21:40:37;10.30;1.00
6355;DHT22;3210;48.708;9.030;2024-02-21T21:43:06;10.30;1.00
6355;DHT22;3210;48.708;9.030;2024-02-21T21:49:01;10.30;1.00
6355;DHT22;3210;48.708;9.030;2024-02-21T21:51:31;10.30;1.00
6355;DHT22;3210;48.708;9.030;2024-02-21T21:54:12;10.30;1.00
6355;DHT22;3210;48.708;9.030;2024-02-21T23:00:33;10.70;1.00
6355;DHT22;3210;48.708;9.030;2024-02-21T23:03:01;10.70;1.00
6355;DHT22;3210;48.708;9.030;2024-02-21T23:05:28;10.70;1.00
6355;DHT22;3210;48.708;9.030;2024-02-21T23:07:56;10.70;1.00
6355;DHT22;3210;48.708;9.030;2024-02-21T23:10:24;10.70;1.00
6355;DHT22;3210;48.708;9.030;2024-02-21T23:12:54;10.70;1.00
6355;DHT22;3210;48.708;9.030;2024-02-21T23:15:21;10.70;1.00
6355;DHT22;3210;48.708;9.030;2024-02-21T23:17:52;10.70;1.00
6355;DHT22;3210;48.708;9.030;2024-02-21T23:20:19;10.70;1.00
6355;DHT22;3210;48.708;9.030;2024-02-21T23:22:47;10.60;1.00
6355;DHT22;3210;48.708;9.030;2024-02-21T23:25:13;10.50;1.00
6355;DHT22;3210;48.708;9.030;2024-02-21T23:27:41;10.40;1.00
6355;DHT22;3210;48.708;9.030;2024-02-21T23:30:10;10.40;1.00
6355;DHT22;3210;48.708;9.030;2024-02-21T23:32:38;10.50;1.00
6355;DHT22;3210;48.708;9.030;2024-02-21T23:35:08;10.50;1.00
6355;DHT22;3210;48.708;9.030;2024-02-21T23:37:35;10.70;1.00
6355;DHT22;3210;48.708;9.030;2024-02-21T23:40:03;10.70;1.00
6355;DHT22;3210;48.708;9.030;2024-02-21T23:42:32;10.80;1.00
6355;DHT22;3210;48.708;9.030;2024-02-21T23:45:02;10.70;1.00
6355;DHT22;3210;48.708;9.030;2024-02-21T23:47:30;10.60;1.00
6355;DHT22;3210;48.708;9.030;2024-02-21T23:49:56;10.70;1.00
6355;DHT22;3210;48.708;9.030;2024-02-21T23:52:25;10.60;1.00
6355;DHT22;3210;48.708;9.030;2024-02-21T23:54:52;10.60;1.00
6355;DHT22;3210;48.708;9.030;2024-02-21T23:57:20;10.40;1.00
6355;DHT22;3210;48.708;9.030;2024-02-21T23:59:47;10.50;1.00
